sensor_id;sensor_type;location;lat;lon;timestamp;temperature;humidity
14884;DHT22;7534;50.762;7.000;2023-12-04T03:46:08;-0.30;75.20
14884;DHT22;7534;50.762;7.000;2023-12-04T03:48:34;-0.30;75.10
14884;DHT22;7534;50.762;7.000;2023-12-04T03:50:59;-0.30;75.10
14884;DHT22;7534;50.762;7.000;2023-12-04T03:53:26;-0.30;75.10
14884;DHT22;7534;50.762;7.000;2023-12-04T03:55:52;-0.30;75.20
14884;DHT22;7534;50.762;7.000;2023-12-04T03:58:18;-0.30;75.30
14884;DHT22;7534;50.762;7.000;2023-12-04T04:00:43;-0.30;75.20
14884;DHT22;7534;50.762;7.000;2023-12-04T04:03:10;-0.30;75.20
14884;DHT22;7534;50.762;7.000;2023-12-04T04:05:36;-0.30;75.50
14884;DHT22;7534;50.762;7.000;2023-12-04T04:08:02;-0.30;75.30
14884;DHT22;7534;50.762;7.000;2023-12-04T04:10:28;-0.30;75.40
14884;DHT22;7534;50.762;7.000;2023-12-04T04:12:54;-0.30;75.50
14884;DHT22;7534;50.762;7.000;2023-12-04T04:15:19;-0.30;75.10
14884;DHT22;7534;50.762;7.000;2023-12-04T04:17:46;-0.30;75.10
14884;DHT22;7534;50.762;7.000;2023-12-04T04:20:12;-0.30;75.20
14884;DHT22;7534;50.762;7.000;2023-12-04T04:22:38;-0.30;75.30
14884;DHT22;7534;50.762;7.000;2023-12-04T04:25:06;-0.30;75.00
14884;DHT22;7534;50.762;7.000;2023-12-04T04:27:34;-0.30;75.00
14884;DHT22;7534;50.762;7.000;2023-12-04T04:30:00;-0.30;75.40
14884;DHT22;7534;50.762;7.000;2023-12-04T04:32:26;-0.30;75.00
14884;DHT22;7534;50.762;7.000;2023-12-04T04:34:52;-0.30;75.00
14884;DHT22;7534;50.762;7.000;2023-12-04T04:37:18;-0.30;75.30
14884;DHT22;7534;50.762;7.000;2023-12-04T04:39:44;-0.30;75.10
14884;DHT22;7534;50.762;7.000;2023-12-04T04:42:11;-0.20;75.40
14884;DHT22;7534;50.762;7.000;2023-12-04T04:44:36;-0.30;75.30
14884;DHT22;7534;50.762;7.000;2023-12-04T04:47:05;-0.30;75.50
14884;DHT22;7534;50.762;7.000;2023-12-04T04:49:31;-0.20;75.00
14884;DHT22;7534;50.762;7.000;2023-12-04T04:51:57;-0.20;75.50
14884;DHT22;7534;50.762;7.000;2023-12-04T04:54:22;-0.30;75.70
14884;DHT22;7534;50.762;7.000;2023-12-04T04:56:48;-0.30;75.50
14884;DHT22;7534;50.762;7.000;2023-12-04T04:59:14;-0.30;75.30
14884;DHT22;7534;50.762;7.000;2023-12-04T05:01:40;-0.30;75.60
14884;DHT22;7534;50.762;7.000;2023-12-04T05:04:05;-0.30;75.40
14884;DHT22;7534;50.762;7.000;2023-12-04T05:06:31;-0.30;75.50
14884;DHT22;7534;50.762;7.000;2023-12-04T05:08:57;-0.30;75.40
14884;DHT22;7534;50.762;7.000;2023-12-04T05:11:23;-0.30;75.80
14884;DHT22;7534;50.762;7.000;2023-12-04T05:13:49;-0.20;75.40
14884;DHT22;7534;50.762;7.000;2023-12-04T05:16:14;-0.20;75.70
14884;DHT22;7534;50.762;7.000;2023-12-04T05:18:40;-0.20;75.50
14884;DHT22;7534;50.762;7.000;2023-12-04T05:21:09;-0.20;75.60
14884;DHT22;7534;50.762;7.000;2023-12-04T05:23:36;-0.20;75.50
14884;DHT22;7534;50.762;7.000;2023-12-04T05:26:06;-0.20;75.80
14884;DHT22;7534;50.762;7.000;2023-12-04T05:28:32;-0.20;75.70
14884;DHT22;7534;50.762;7.000;2023-12-04T05:30:58;-0.20;75.60
14884;DHT22;7534;50.762;7.000;2023-12-04T05:33:24;-0.20;75.40
14884;DHT22;7534;50.762;7.000;2023-12-04T05:35:50;-0.10;75.50
14884;DHT22;7534;50.762;7.000;2023-12-04T05:38:19;-0.10;75.50
14884;DHT22;7534;50.762;7.000;2023-12-04T05:40:45;-0.10;75.30
14884;DHT22;7534;50.762;7.000;2023-12-04T05:43:10;-0.10;75.10
14884;DHT22;7534;50.762;7.000;2023-12-04T05:45:36;-0.10;74.90
14884;DHT22;7534;50.762;7.000;2023-12-04T05:48:02;0.00;75.40
14884;DHT22;7534;50.762;7.000;2023-12-04T05:50:28;-0.10;75.30
14884;DHT22;7534;50.762;7.000;2023-12-04T05:52:54;0.00;75.00
14884;DHT22;7534;50.762;7.000;2023-12-04T05:55:20;-0.10;75.60
14884;DHT22;7534;50.762;7.000;2023-12-04T05:57:46;-0.10;75.60
14884;DHT22;7534;50.762;7.000;2023-12-04T06:00:12;-0.10;75.90
14884;DHT22;7534;50.762;7.000;2023-12-04T06:02:42;-0.10;75.70
14884;DHT22;7534;50.762;7.000;2023-12-04T06:05:09;0.00;75.90
14884;DHT22;7534;50.762;7.000;2023-12-04T06:07:35;0.00;76.20
14884;DHT22;7534;50.762;7.000;2023-12-04T06:10:06;-0.10;75.60
14884;DHT22;7534;50.762;7.000;2023-12-04T06:12:33;-0.10;75.80
14884;DHT22;7534;50.762;7.000;2023-12-04T06:14:59;0.00;75.70
14884;DHT22;7534;50.762;7.000;2023-12-04T06:17:26;0.00;75.60
14884;DHT22;7534;50.762;7.000;2023-12-04T06:19:53;0.00;75.70
14884;DHT22;7534;50.762;7.000;2023-12-04T06:22:19;0.00;75.40
14884;DHT22;7534;50.762;7.000;2023-12-04T06:24:47;0.00;75.00
14884;DHT22;7534;50.762;7.000;2023-12-04T06:27:16;-0.10;75.10
14884;DHT22;7534;50.762;7.000;2023-12-04T06:29:46;-0.10;74.90
14884;DHT22;7534;50.762;7.000;2023-12-04T06:32:12;0.00;75.40
14884;DHT22;7534;50.762;7.000;2023-12-04T06:34:39;0.00;75.00
14884;DHT22;7534;50.762;7.000;2023-12-04T06:37:10;0.00;75.30
14884;DHT22;7534;50.762;7.000;2023-12-04T06:39:38;0.00;75.40
14884;DHT22;7534;50.762;7.000;2023-12-04T06:42:14;0.00;75.80
14884;DHT22;7534;50.762;7.000;2023-12-04T06:44:40;-0.10;75.50
14884;DHT22;7534;50.762;7.000;2023-12-04T06:47:08;-0.10;75.80
14884;DHT22;7534;50.762;7.000;2023-12-04T06:49:34;-0.10;75.90
14884;DHT22;7534;50.762;7.000;2023-12-04T06:52:00;-0.10;75.70
14884;DHT22;7534;50.762;7.000;2023-12-04T06:54:27;-0.20;76.20
14884;DHT22;7534;50.762;7.000;2023-12-04T06:56:54;-0.10;75.80
14884;DHT22;7534;50.762;7.000;2023-12-04T06:59:20;-0.20;75.80
14884;DHT22;7534;50.762;7.000;2023-12-04T07:01:46;-0.20;75.80
14884;DHT22;7534;50.762;7.000;2023-12-04T07:04:12;-0.10;76.00
14884;DHT22;7534;50.762;7.000;2023-12-04T07:06:39;-0.10;75.50
14884;DHT22;7534;50.762;7.000;2023-12-04T07:09:06;-0.10;75.10
14884;DHT22;7534;50.762;7.000;2023-12-04T07:11:35;0.00;74.60
14884;DHT22;7534;50.762;7.000;2023-12-04T07:14:00;0.00;74.90
14884;DHT22;7534;50.762;7.000;2023-12-04T07:16:26;0.00;74.90
14884;DHT22;7534;50.762;7.000;2023-12-04T07:18:53;0.00;74.60
14884;DHT22;7534;50.762;7.000;2023-12-04T07:21:19;0.10;74.60
14884;DHT22;7534;50.762;7.000;2023-12-04T07:23:45;0.10;74.10
14884;DHT22;7534;50.762;7.000;2023-12-04T07:26:11;0.10;74.00
14884;DHT22;7534;50.762;7.000;2023-12-04T07:28:36;0.10;73.40
14884;DHT22;7534;50.762;7.000;2023-12-04T07:31:03;0.20;73.60
14884;DHT22;7534;50.762;7.000;2023-12-04T07:33:29;0.20;73.20
14884;DHT22;7534;50.762;7.000;2023-12-04T07:35:57;0.20;72.90
14884;DHT22;7534;50.762;7.000;2023-12-04T07:38:23;0.30;72.80
14884;DHT22;7534;50.762;7.000;2023-12-04T07:40:49;0.20;72.60
14884;DHT22;7534;50.762;7.000;2023-12-04T07:43:15;0.20;73.00
14884;DHT22;7534;50.762;7.000;2023-12-04T07:45:41;0.30;73.00
14884;DHT22;7534;50.762;7.000;2023-12-04T07:48:07;0.30;73.20
14884;DHT22;7534;50.762;7.000;2023-12-04T07:50:33;0.30;73.20
14884;DHT22;7534;50.762;7.000;2023-12-04T07:53:13;0.40;72.90
14884;DHT22;7534;50.762;7.000;2023-12-04T07:55:40;0.50;71.50
14884;DHT22;7534;50.762;7.000;2023-12-04T07:58:10;0.50;72.30
14884;DHT22;7534;50.762;7.000;2023-12-04T08:00:35;0.50;72.10
14884;DHT22;7534;50.762;7.000;2023-12-04T08:03:01;0.50;72.10
14884;DHT22;7534;50.762;7.000;2023-12-04T08:05:28;0.50;71.70
14884;DHT22;7534;50.762;7.000;2023-12-04T08:07:55;0.50;70.80
14884;DHT22;7534;50.762;7.000;2023-12-04T08:10:20;0.60;71.20
14884;DHT22;7534;50.762;7.000;2023-12-04T08:12:48;0.50;71.60
14884;DHT22;7534;50.762;7.000;2023-12-04T08:15:16;0.50;71.40
14884;DHT22;7534;50.762;7.000;2023-12-04T08:17:42;0.50;71.90
14884;DHT22;7534;50.762;7.000;2023-12-04T08:20:08;0.50;71.40
14884;DHT22;7534;50.762;7.000;2023-12-04T08:22:41;0.60;71.50
14884;DHT22;7534;50.762;7.000;2023-12-04T08:25:09;0.50;71.30
14884;DHT22;7534;50.762;7.000;2023-12-04T08:27:37;0.60;71.00
14884;DHT22;7534;50.762;7.000;2023-12-04T08:30:04;0.60;70.60
14884;DHT22;7534;50.762;7.000;2023-12-04T08:32:30;0.50;71.50
14884;DHT22;7534;50.762;7.000;2023-12-04T08:34:59;0.50;71.60
14884;DHT22;7534;50.762;7.000;2023-12-04T08:37:26;0.50;71.40
14884;DHT22;7534;50.762;7.000;2023-12-04T08:39:51;0.50;71.20
14884;DHT22;7534;50.762;7.000;2023-12-04T08:42:19;0.60;71.30
14884;DHT22;7534;50.762;7.000;2023-12-04T08:44:45;0.70;71.20
14884;DHT22;7534;50.762;7.000;2023-12-04T08:47:12;0.70;70.70
14884;DHT22;7534;50.762;7.000;2023-12-04T08:49:40;0.70;71.20
14884;DHT22;7534;50.762;7.000;2023-12-04T08:52:07;0.80;70.70
14884;DHT22;7534;50.762;7.000;2023-12-04T08:54:33;0.80;70.40
14884;DHT22;7534;50.762;7.000;2023-12-04T08:57:02;0.80;69.80
14884;DHT22;7534;50.762;7.000;2023-12-04T08:59:29;0.80;69.90
14884;DHT22;7534;50.762;7.000;2023-12-04T09:01:54;0.90;70.00
14884;DHT22;7534;50.762;7.000;2023-12-04T09:04:21;0.90;69.90
14884;DHT22;7534;50.762;7.000;2023-12-04T09:06:47;1.00;70.40
14884;DHT22;7534;50.762;7.000;2023-12-04T09:09:13;1.00;70.40
14884;DHT22;7534;50.762;7.000;2023-12-04T09:11:42;1.00;69.20
14884;DHT22;7534;50.762;7.000;2023-12-04T09:14:09;1.00;68.90
14884;DHT22;7534;50.762;7.000;2023-12-04T09:16:35;1.00;68.70
14884;DHT22;7534;50.762;7.000;2023-12-04T09:19:00;1.00;69.20
14884;DHT22;7534;50.762;7.000;2023-12-04T09:21:26;1.00;69.20
14884;DHT22;7534;50.762;7.000;2023-12-04T09:23:56;1.00;68.70
14884;DHT22;7534;50.762;7.000;2023-12-04T09:26:23;1.00;68.10
14884;DHT22;7534;50.762;7.000;2023-12-04T09:28:48;1.00;68.10
14884;DHT22;7534;50.762;7.000;2023-12-04T09:31:14;1.10;68.60
14884;DHT22;7534;50.762;7.000;2023-12-04T09:33:40;1.20;68.40
14884;DHT22;7534;50.762;7.000;2023-12-04T09:36:06;1.20;68.20
14884;DHT22;7534;50.762;7.000;2023-12-04T09:38:33;1.30;68.00
14884;DHT22;7534;50.762;7.000;2023-12-04T09:41:01;1.30;67.40
14884;DHT22;7534;50.762;7.000;2023-12-04T09:43:31;1.30;68.10
14884;DHT22;7534;50.762;7.000;2023-12-04T09:45:58;1.30;68.10
14884;DHT22;7534;50.762;7.000;2023-12-04T09:48:26;1.30;67.40
14884;DHT22;7534;50.762;7.000;2023-12-04T09:50:53;1.40;67.40
14884;DHT22;7534;50.762;7.000;2023-12-04T09:53:21;1.40;67.20
14884;DHT22;7534;50.762;7.000;2023-12-04T09:55:49;1.40;67.90
14884;DHT22;7534;50.762;7.000;2023-12-04T09:58:18;1.40;67.90
14884;DHT22;7534;50.762;7.000;2023-12-04T10:00:46;1.50;67.20
14884;DHT22;7534;50.762;7.000;2023-12-04T10:03:13;1.50;67.40
14884;DHT22;7534;50.762;7.000;2023-12-04T10:05:46;1.50;66.80
14884;DHT22;7534;50.762;7.000;2023-12-04T10:08:11;1.50;67.50
14884;DHT22;7534;50.762;7.000;2023-12-04T10:10:38;1.50;67.60
14884;DHT22;7534;50.762;7.000;2023-12-04T10:13:06;1.50;66.70
14884;DHT22;7534;50.762;7.000;2023-12-04T10:15:32;1.50;67.00
14884;DHT22;7534;50.762;7.000;2023-12-04T10:17:58;1.50;67.80
14884;DHT22;7534;50.762;7.000;2023-12-04T10:20:25;1.60;67.40
14884;DHT22;7534;50.762;7.000;2023-12-04T10:23:02;1.50;67.70
14884;DHT22;7534;50.762;7.000;2023-12-04T10:25:29;1.50;67.80
14884;DHT22;7534;50.762;7.000;2023-12-04T10:28:08;1.60;68.20
14884;DHT22;7534;50.762;7.000;2023-12-04T10:30:37;1.70;68.20
14884;DHT22;7534;50.762;7.000;2023-12-04T10:33:07;1.70;68.30
14884;DHT22;7534;50.762;7.000;2023-12-04T10:35:38;1.70;69.00
14884;DHT22;7534;50.762;7.000;2023-12-04T10:38:06;1.80;68.90
14884;DHT22;7534;50.762;7.000;2023-12-04T10:40:35;1.70;69.30
14884;DHT22;7534;50.762;7.000;2023-12-04T10:43:15;1.80;70.00
14884;DHT22;7534;50.762;7.000;2023-12-04T10:45:42;1.70;69.50
14884;DHT22;7534;50.762;7.000;2023-12-04T10:48:11;1.80;69.80
14884;DHT22;7534;50.762;7.000;2023-12-04T10:50:49;1.80;69.20
14884;DHT22;7534;50.762;7.000;2023-12-04T10:53:16;1.80;69.60
14884;DHT22;7534;50.762;7.000;2023-12-04T10:55:43;1.80;69.70
14884;DHT22;7534;50.762;7.000;2023-12-04T10:58:12;1.70;69.80
14884;DHT22;7534;50.762;7.000;2023-12-04T11:00:44;1.70;69.80
14884;DHT22;7534;50.762;7.000;2023-12-04T11:03:32;1.70;70.20
14884;DHT22;7534;50.762;7.000;2023-12-04T11:06:02;1.70;70.10
14884;DHT22;7534;50.762;7.000;2023-12-04T11:08:33;1.70;70.00
14884;DHT22;7534;50.762;7.000;2023-12-04T11:14:04;1.70;71.40
14884;DHT22;7534;50.762;7.000;2023-12-04T11:17:25;1.60;71.60
14884;DHT22;7534;50.762;7.000;2023-12-04T11:20:02;1.50;72.40
14884;DHT22;7534;50.762;7.000;2023-12-04T11:22:38;1.50;73.10
14884;DHT22;7534;50.762;7.000;2023-12-04T11:25:08;1.50;74.00
14884;DHT22;7534;50.762;7.000;2023-12-04T12:19:41;1.30;79.40
14884;DHT22;7534;50.762;7.000;2023-12-04T12:22:17;1.20;79.60
14884;DHT22;7534;50.762;7.000;2023-12-04T12:25:21;1.30;79.70
14884;DHT22;7534;50.762;7.000;2023-12-04T12:28:09;1.30;80.20
14884;DHT22;7534;50.762;7.000;2023-12-04T12:30:38;1.30;79.90
14884;DHT22;7534;50.762;7.000;2023-12-04T12:33:04;1.40;80.60
14884;DHT22;7534;50.762;7.000;2023-12-04T12:35:33;1.40;80.20
14884;DHT22;7534;50.762;7.000;2023-12-04T12:38:03;1.30;80.10
14884;DHT22;7534;50.762;7.000;2023-12-04T12:40:30;1.40;80.20
14884;DHT22;7534;50.762;7.000;2023-12-04T12:43:11;1.40;80.20
14884;DHT22;7534;50.762;7.000;2023-12-04T12:45:52;1.30;80.20
14884;DHT22;7534;50.762;7.000;2023-12-04T12:48:18;1.30;80.90
14884;DHT22;7534;50.762;7.000;2023-12-04T12:50:47;1.30;80.90
14884;DHT22;7534;50.762;7.000;2023-12-04T12:53:18;1.40;80.90
14884;DHT22;7534;50.762;7.000;2023-12-04T12:55:48;1.40;81.10
14884;DHT22;7534;50.762;7.000;2023-12-04T12:58:19;1.30;80.90
14884;DHT22;7534;50.762;7.000;2023-12-04T13:00:48;1.40;81.30
14884;DHT22;7534;50.762;7.000;2023-12-04T13:03:20;1.50;81.40
14884;DHT22;7534;50.762;7.000;2023-12-04T13:05:47;1.40;81.20
14884;DHT22;7534;50.762;7.000;2023-12-04T13:08:32;1.50;81.30
14884;DHT22;7534;50.762;7.000;2023-12-04T13:10:58;1.50;81.20
14884;DHT22;7534;50.762;7.000;2023-12-04T13:13:27;1.50;81.00
14884;DHT22;7534;50.762;7.000;2023-12-04T13:15:53;1.50;81.00
14884;DHT22;7534;50.762;7.000;2023-12-04T13:18:54;1.50;81.30
14884;DHT22;7534;50.762;7.000;2023-12-04T13:22:07;1.60;81.20
14884;DHT22;7534;50.762;7.000;2023-12-04T13:25:30;1.80;80.80
14884;DHT22;7534;50.762;7.000;2023-12-04T13:28:05;1.90;80.20
14884;DHT22;7534;50.762;7.000;2023-12-04T13:30:31;1.80;80.00
14884;DHT22;7534;50.762;7.000;2023-12-04T13:33:01;1.80;80.10
14884;DHT22;7534;50.762;7.000;2023-12-04T13:35:26;1.70;80.10
14884;DHT22;7534;50.762;7.000;2023-12-04T13:37:52;1.60;80.40
14884;DHT22;7534;50.762;7.000;2023-12-04T13:40:21;1.60;80.50
14884;DHT22;7534;50.762;7.000;2023-12-04T13:42:53;1.60;80.90
14884;DHT22;7534;50.762;7.000;2023-12-04T13:45:37;1.60;81.40
14884;DHT22;7534;50.762;7.000;2023-12-04T13:48:03;1.60;81.40
14884;DHT22;7534;50.762;7.000;2023-12-04T13:50:29;1.60;81.20
14884;DHT22;7534;50.762;7.000;2023-12-04T13:52:55;1.60;81.10
14884;DHT22;7534;50.762;7.000;2023-12-04T13:55:24;1.60;81.10
14884;DHT22;7534;50.762;7.000;2023-12-04T13:58:22;1.50;81.40
14884;DHT22;7534;50.762;7.000;2023-12-04T14:01:04;1.50;81.50
14884;DHT22;7534;50.762;7.000;2023-12-04T14:03:40;1.50;81.70
14884;DHT22;7534;50.762;7.000;2023-12-04T14:06:08;1.50;81.20
14884;DHT22;7534;50.762;7.000;2023-12-04T14:08:39;1.40;81.70
14884;DHT22;7534;50.762;7.000;2023-12-04T14:11:08;1.40;81.50
14884;DHT22;7534;50.762;7.000;2023-12-04T14:13:36;1.40;81.80
14884;DHT22;7534;50.762;7.000;2023-12-04T14:16:07;1.30;81.80
14884;DHT22;7534;50.762;7.000;2023-12-04T14:18:34;1.30;81.90
14884;DHT22;7534;50.762;7.000;2023-12-04T14:21:00;1.30;81.70
14884;DHT22;7534;50.762;7.000;2023-12-04T14:23:27;1.30;81.60
14884;DHT22;7534;50.762;7.000;2023-12-04T14:25:55;1.30;82.00
14884;DHT22;7534;50.762;7.000;2023-12-04T14:28:44;1.30;82.10
14884;DHT22;7534;50.762;7.000;2023-12-04T14:31:13;1.20;81.70
14884;DHT22;7534;50.762;7.000;2023-12-04T14:33:40;1.30;81.90
14884;DHT22;7534;50.762;7.000;2023-12-04T14:36:13;1.30;82.20
14884;DHT22;7534;50.762;7.000;2023-12-04T14:38:41;1.30;82.10
14884;DHT22;7534;50.762;7.000;2023-12-04T14:41:07;1.40;81.70
14884;DHT22;7534;50.762;7.000;2023-12-04T14:46:54;1.30;82.10
14884;DHT22;7534;50.762;7.000;2023-12-04T14:49:25;1.30;82.20
14884;DHT22;7534;50.762;7.000;2023-12-04T14:51:51;1.40;82.30
14884;DHT22;7534;50.762;7.000;2023-12-04T14:54:17;1.40;82.40
14884;DHT22;7534;50.762;7.000;2023-12-04T14:57:12;1.30;82.40
14884;DHT22;7534;50.762;7.000;2023-12-04T14:59:38;1.30;82.70
14884;DHT22;7534;50.762;7.000;2023-12-04T15:02:25;1.30;82.70
14884;DHT22;7534;50.762;7.000;2023-12-04T15:05:04;1.30;82.70
14884;DHT22;7534;50.762;7.000;2023-12-04T15:08:03;1.30;83.00
14884;DHT22;7534;50.762;7.000;2023-12-04T15:10:55;1.20;83.30
14884;DHT22;7534;50.762;7.000;2023-12-04T15:13:39;1.20;83.70
14884;DHT22;7534;50.762;7.000;2023-12-04T15:16:23;1.20;84.10
14884;DHT22;7534;50.762;7.000;2023-12-04T15:19:14;1.20;83.80
14884;DHT22;7534;50.762;7.000;2023-12-04T15:21:58;1.20;83.90
14884;DHT22;7534;50.762;7.000;2023-12-04T15:24:24;1.20;83.90
14884;DHT22;7534;50.762;7.000;2023-12-04T15:26:50;1.30;83.90
14884;DHT22;7534;50.762;7.000;2023-12-04T15:29:17;1.30;83.60
14884;DHT22;7534;50.762;7.000;2023-12-04T15:31:48;1.30;83.60
14884;DHT22;7534;50.762;7.000;2023-12-04T15:34:18;1.30;83.50
14884;DHT22;7534;50.762;7.000;2023-12-04T15:36:47;1.30;83.30
14884;DHT22;7534;50.762;7.000;2023-12-04T15:39:16;1.30;83.00
14884;DHT22;7534;50.762;7.000;2023-12-04T15:45:29;1.40;83.20
14884;DHT22;7534;50.762;7.000;2023-12-04T16:00:55;1.30;82.80
14884;DHT22;7534;50.762;7.000;2023-12-04T16:03:21;1.30;82.70
14884;DHT22;7534;50.762;7.000;2023-12-04T16:05:52;1.30;82.80
14884;DHT22;7534;50.762;7.000;2023-12-04T16:08:20;1.30;83.20
14884;DHT22;7534;50.762;7.000;2023-12-04T16:10:47;1.30;83.20
14884;DHT22;7534;50.762;7.000;2023-12-04T16:13:13;1.30;83.10
14884;DHT22;7534;50.762;7.000;2023-12-04T16:15:44;1.40;82.90
14884;DHT22;7534;50.762;7.000;2023-12-04T16:18:14;1.40;83.00
14884;DHT22;7534;50.762;7.000;2023-12-04T16:20:40;1.40;82.90
14884;DHT22;7534;50.762;7.000;2023-12-04T16:23:12;1.40;83.10
14884;DHT22;7534;50.762;7.000;2023-12-04T16:25:38;1.40;83.00
14884;DHT22;7534;50.762;7.000;2023-12-04T16:28:15;1.40;82.60
14884;DHT22;7534;50.762;7.000;2023-12-04T16:30:57;1.40;82.80
14884;DHT22;7534;50.762;7.000;2023-12-04T16:36:25;1.50;82.70
14884;DHT22;7534;50.762;7.000;2023-12-04T16:38:51;1.50;82.60
14884;DHT22;7534;50.762;7.000;2023-12-04T16:41:28;1.50;82.70
14884;DHT22;7534;50.762;7.000;2023-12-04T16:44:25;1.50;82.40
14884;DHT22;7534;50.762;7.000;2023-12-04T16:47:00;1.50;82.70
14884;DHT22;7534;50.762;7.000;2023-12-04T16:52:49;1.50;82.40
14884;DHT22;7534;50.762;7.000;2023-12-04T16:55:43;1.50;82.30
14884;DHT22;7534;50.762;7.000;2023-12-04T17:13:07;1.40;84.70
14884;DHT22;7534;50.762;7.000;2023-12-04T17:15:58;1.20;86.40
14884;DHT22;7534;50.762;7.000;2023-12-04T17:22:06;1.00;88.30
14884;DHT22;7534;50.762;7.000;2023-12-04T17:25:02;1.00;88.80
14884;DHT22;7534;50.762;7.000;2023-12-04T17:27:45;0.90;89.70
14884;DHT22;7534;50.762;7.000;2023-12-04T17:30:28;0.90;90.30
14884;DHT22;7534;50.762;7.000;2023-12-04T17:37:33;0.90;91.10
14884;DHT22;7534;50.762;7.000;2023-12-04T17:40:32;0.80;91.80
14884;DHT22;7534;50.762;7.000;2023-12-04T17:43:26;0.70;92.30
14884;DHT22;7534;50.762;7.000;2023-12-04T17:45:57;0.70;92.90
14884;DHT22;7534;50.762;7.000;2023-12-04T18:50:41;1.10;93.70
14884;DHT22;7534;50.762;7.000;2023-12-04T18:53:10;1.10;93.50
14884;DHT22;7534;50.762;7.000;2023-12-04T18:55:44;1.10;93.50
14884;DHT22;7534;50.762;7.000;2023-12-04T18:58:15;1.20;93.20
14884;DHT22;7534;50.762;7.000;2023-12-04T19:00:41;1.20;93.30
14884;DHT22;7534;50.762;7.000;2023-12-04T19:03:32;1.20;93.60
14884;DHT22;7534;50.762;7.000;2023-12-04T19:06:07;1.20;93.60
14884;DHT22;7534;50.762;7.000;2023-12-04T19:09:14;1.20;93.50
14884;DHT22;7534;50.762;7.000;2023-12-04T19:12:33;1.20;93.70
14884;DHT22;7534;50.762;7.000;2023-12-04T19:15:08;1.20;93.90
14884;DHT22;7534;50.762;7.000;2023-12-04T19:18:07;1.20;93.90
14884;DHT22;7534;50.762;7.000;2023-12-04T19:20:57;1.30;93.80
14884;DHT22;7534;50.762;7.000;2023-12-04T19:23:45;1.30;93.50
14884;DHT22;7534;50.762;7.000;2023-12-04T19:26:38;1.30;93.30
14884;DHT22;7534;50.762;7.000;2023-12-04T19:40:07;1.40;93.30
14884;DHT22;7534;50.762;7.000;2023-12-04T19:42:55;1.40;93.20
14884;DHT22;7534;50.762;7.000;2023-12-04T19:45:46;1.40;93.20
14884;DHT22;7534;50.762;7.000;2023-12-04T19:48:14;1.40;93.50
14884;DHT22;7534;50.762;7.000;2023-12-04T19:54:06;1.50;92.90
14884;DHT22;7534;50.762;7.000;2023-12-04T19:56:33;1.60;93.00
14884;DHT22;7534;50.762;7.000;2023-12-04T19:59:35;1.50;92.90
14884;DHT22;7534;50.762;7.000;2023-12-04T20:02:03;1.60;92.90
14884;DHT22;7534;50.762;7.000;2023-12-04T20:04:50;1.60;92.90
14884;DHT22;7534;50.762;7.000;2023-12-04T20:07:34;1.70;92.90
14884;DHT22;7534;50.762;7.000;2023-12-04T20:13:17;1.60;92.80
14884;DHT22;7534;50.762;7.000;2023-12-04T20:15:49;1.70;92.90
14884;DHT22;7534;50.762;7.000;2023-12-04T21:04:54;1.90;94.70
14884;DHT22;7534;50.762;7.000;2023-12-04T21:07:19;1.80;94.80
14884;DHT22;7534;50.762;7.000;2023-12-04T21:09:45;1.90;94.70
14884;DHT22;7534;50.762;7.000;2023-12-04T21:12:11;1.90;94.70
14884;DHT22;7534;50.762;7.000;2023-12-04T21:14:44;1.90;94.60
14884;DHT22;7534;50.762;7.000;2023-12-04T21:17:10;1.90;94.70
14884;DHT22;7534;50.762;7.000;2023-12-04T21:19:36;1.90;94.70
14884;DHT22;7534;50.762;7.000;2023-12-04T21:22:02;1.90;94.80
14884;DHT22;7534;50.762;7.000;2023-12-04T21:24:28;1.90;94.70
14884;DHT22;7534;50.762;7.000;2023-12-04T21:26:53;2.00;94.60
14884;DHT22;7534;50.762;7.000;2023-12-04T21:29:19;2.00;94.40
14884;DHT22;7534;50.762;7.000;2023-12-04T21:31:45;2.00;94.40
14884;DHT22;7534;50.762;7.000;2023-12-04T21:34:11;1.90;94.50
14884;DHT22;7534;50.762;7.000;2023-12-04T21:36:41;1.90;94.60
14884;DHT22;7534;50.762;7.000;2023-12-04T21:39:10;1.90;94.70
14884;DHT22;7534;50.762;7.000;2023-12-04T21:41:40;2.00;94.70
14884;DHT22;7534;50.762;7.000;2023-12-04T21:44:07;2.00;94.60
14884;DHT22;7534;50.762;7.000;2023-12-04T21:46:33;2.00;94.40
14884;DHT22;7534;50.762;7.000;2023-12-04T21:49:00;2.10;94.40
14884;DHT22;7534;50.762;7.000;2023-12-04T21:51:26;2.10;94.30
14884;DHT22;7534;50.762;7.000;2023-12-04T21:53:55;2.20;94.10
14884;DHT22;7534;50.762;7.000;2023-12-04T21:56:20;2.20;94.00
14884;DHT22;7534;50.762;7.000;2023-12-04T21:58:47;2.20;93.90
14884;DHT22;7534;50.762;7.000;2023-12-04T22:01:15;2.20;93.90
14884;DHT22;7534;50.762;7.000;2023-12-04T22:03:51;2.20;94.00
14884;DHT22;7534;50.762;7.000;2023-12-04T22:06:17;2.20;93.90
14884;DHT22;7534;50.762;7.000;2023-12-04T22:08:43;2.30;94.00
14884;DHT22;7534;50.762;7.000;2023-12-04T22:11:12;2.30;93.80
14884;DHT22;7534;50.762;7.000;2023-12-04T22:13:47;2.30;93.80
14884;DHT22;7534;50.762;7.000;2023-12-04T22:16:13;2.30;93.90
14884;DHT22;7534;50.762;7.000;2023-12-04T22:18:38;2.30;94.10
14884;DHT22;7534;50.762;7.000;2023-12-04T22:21:06;2.30;94.20
14884;DHT22;7534;50.762;7.000;2023-12-04T22:23:33;2.30;94.20
14884;DHT22;7534;50.762;7.000;2023-12-04T22:26:07;2.30;94.20
14884;DHT22;7534;50.762;7.000;2023-12-04T22:31:10;2.40;94.00
14884;DHT22;7534;50.762;7.000;2023-12-04T22:33:41;2.40;94.00
14884;DHT22;7534;50.762;7.000;2023-12-04T22:36:10;2.40;94.20
14884;DHT22;7534;50.762;7.000;2023-12-04T22:38:41;2.40;94.10
14884;DHT22;7534;50.762;7.000;2023-12-04T22:41:07;2.40;94.00
14884;DHT22;7534;50.762;7.000;2023-12-04T22:43:34;2.50;93.80
14884;DHT22;7534;50.762;7.000;2023-12-04T22:45:59;2.50;93.90
14884;DHT22;7534;50.762;7.000;2023-12-04T22:48:26;2.50;93.90
14884;DHT22;7534;50.762;7.000;2023-12-04T22:51:27;2.50;94.00
14884;DHT22;7534;50.762;7.000;2023-12-04T22:53:48;2.50;94.00
14884;DHT22;7534;50.762;7.000;2023-12-04T22:56:14;2.50;93.80
14884;DHT22;7534;50.762;7.000;2023-12-04T22:58:42;2.50;94.00
14884;DHT22;7534;50.762;7.000;2023-12-04T23:01:08;2.50;94.10
14884;DHT22;7534;50.762;7.000;2023-12-04T23:03:34;2.50;94.10
14884;DHT22;7534;50.762;7.000;2023-12-04T23:06:04;2.50;94.10
14884;DHT22;7534;50.762;7.000;2023-12-04T23:08:32;2.60;94.00
14884;DHT22;7534;50.762;7.000;2023-12-04T23:11:09;2.60;93.80
14884;DHT22;7534;50.762;7.000;2023-12-04T23:13:35;2.60;93.90
14884;DHT22;7534;50.762;7.000;2023-12-04T23:16:01;2.60;93.80
14884;DHT22;7534;50.762;7.000;2023-12-04T23:18:27;2.60;93.60
14884;DHT22;7534;50.762;7.000;2023-12-04T23:21:01;2.60;93.50
14884;DHT22;7534;50.762;7.000;2023-12-04T23:23:50;2.60;93.40
14884;DHT22;7534;50.762;7.000;2023-12-04T23:26:27;2.60;93.40
14884;DHT22;7534;50.762;7.000;2023-12-04T23:28:53;2.70;93.40
14884;DHT22;7534;50.762;7.000;2023-12-04T23:31:19;2.60;93.40
14884;DHT22;7534;50.762;7.000;2023-12-04T23:33:44;2.70;93.40
14884;DHT22;7534;50.762;7.000;2023-12-04T23:36:10;2.60;93.50
14884;DHT22;7534;50.762;7.000;2023-12-04T23:38:43;2.60;93.60
14884;DHT22;7534;50.762;7.000;2023-12-04T23:41:20;2.70;93.50
14884;DHT22;7534;50.762;7.000;2023-12-04T23:43:45;2.70;93.60
14884;DHT22;7534;50.762;7.000;2023-12-04T23:46:14;2.70;93.50
14884;DHT22;7534;50.762;7.000;2023-12-04T23:48:41;2.70;93.40
14884;DHT22;7534;50.762;7.000;2023-12-04T23:51:16;2.80;93.40
14884;DHT22;7534;50.762;7.000;2023-12-04T23:53:48;2.80;93.20
14884;DHT22;7534;50.762;7.000;2023-12-04T23:59:46;2.80;93.30
